Time;durP1;ratioP1;P1;durP2;ratioP2;P2;SDS_P1;SDS_P2;PMS_P1;PMS_P2;Temp;Humidity;BMP_temperature;BMP_pressure;BME280_temperature;BME280_humidity;BME280_pressure;Samples;Min_cycle;Max_cycle;Signal;HPM_P1;HPM_P2
2022/12/05 00:02:25;;;;;;;13.40;10.10;;;1.60;99.90;;;;;;5060643;28;20201;-70
2022/12/05 00:04:52;;;;;;;16.97;11.03;;;1.60;99.90;;;;;;5062427;28;20224;-72
2022/12/05 00:07:19;;;;;;;17.83;10.70;;;1.60;99.90;;;;;;5064552;28;20225;-71
2022/12/05 00:09:46;;;;;;;20.47;11.23;;;1.60;99.90;;;;;;5064718;28;20296;-71
2022/12/05 00:12:14;;;;;;;18.63;10.97;;;1.60;99.90;;;;;;5062718;28;20205;-70
2022/12/05 00:14:40;;;;;;;15.60;9.30;;;1.60;99.90;;;;;;5062178;28;20205;-71
2022/12/05 00:17:07;;;;;;;14.17;10.33;;;1.60;99.90;;;;;;5068906;28;20205;-69
2022/12/05 00:19:34;;;;;;;15.53;10.60;;;1.60;99.90;;;;;;5060719;28;20209;-74
2022/12/05 00:22:01;;;;;;;16.13;11.00;;;1.60;99.90;;;;;;5067002;28;20205;-72
2022/12/05 00:24:27;;;;;;;14.40;10.73;;;1.60;99.90;;;;;;5060487;28;20568;-71
2022/12/05 00:26:54;;;;;;;16.13;10.73;;;1.60;99.90;;;;;;5064487;28;20577;-71
2022/12/05 00:29:22;;;;;;;14.70;11.00;;;1.50;99.90;;;;;;5069348;28;20221;-72
2022/12/05 00:31:49;;;;;;;18.20;11.90;;;1.50;99.90;;;;;;5065708;28;20517;-72
2022/12/05 00:34:16;;;;;;;17.77;10.83;;;1.50;99.90;;;;;;5068789;28;20201;-70
2022/12/05 00:36:43;;;;;;;14.13;10.57;;;1.50;99.90;;;;;;5059040;28;20639;-69
2022/12/05 00:39:13;;;;;;;14.97;10.83;;;1.40;99.90;;;;;;5066870;28;20641;-72
2022/12/05 00:41:39;;;;;;;15.63;10.90;;;1.40;99.90;;;;;;5061761;28;20210;-70
2022/12/05 00:44:07;;;;;;;16.00;11.47;;;1.40;99.90;;;;;;5068394;28;20581;-71
2022/12/05 00:46:35;;;;;;;18.83;11.47;;;1.50;99.90;;;;;;5068615;28;20212;-71
2022/12/05 00:49:04;;;;;;;15.93;11.10;;;1.40;99.90;;;;;;5059729;28;20280;-71
2022/12/05 00:51:33;;;;;;;17.00;12.07;;;1.50;99.90;;;;;;5066027;28;20205;-70
2022/12/05 00:54:03;;;;;;;17.53;11.87;;;1.50;99.90;;;;;;5073123;28;20213;-72
2022/12/05 00:56:31;;;;;;;17.50;11.33;;;1.50;99.90;;;;;;5068914;28;20228;-72
2022/12/05 00:58:59;;;;;;;16.47;10.70;;;1.50;99.90;;;;;;5066675;28;20212;-71
2022/12/05 01:01:31;;;;;;;14.90;10.83;;;1.50;99.90;;;;;;5059202;28;20205;-69
2022/12/05 01:04:03;;;;;;;16.93;10.70;;;1.50;99.90;;;;;;5068129;28;20664;-72
2022/12/05 01:06:30;;;;;;;15.67;10.37;;;1.50;99.90;;;;;;5069907;28;20208;-70
2022/12/05 01:08:57;;;;;;;18.00;11.10;;;1.40;99.90;;;;;;5068915;28;20597;-70
2022/12/05 01:11:25;;;;;;;19.30;11.23;;;1.40;99.90;;;;;;5063209;28;20209;-70
2022/12/05 01:13:53;;;;;;;17.97;11.53;;;1.50;99.90;;;;;;5065622;28;20217;-67
2022/12/05 01:16:23;;;;;;;16.93;11.43;;;1.60;99.90;;;;;;5063388;28;20209;-70
2022/12/05 01:18:49;;;;;;;20.03;12.10;;;1.40;99.90;;;;;;5069323;28;20208;-70
2022/12/05 01:21:18;;;;;;;19.03;12.33;;;1.40;99.90;;;;;;5071063;28;20220;-70
2022/12/05 01:23:45;;;;;;;15.37;10.60;;;1.40;99.90;;;;;;5070170;28;20197;-72
2022/12/05 01:26:14;;;;;;;19.20;12.07;;;1.40;99.90;;;;;;5071648;28;20220;-72
2022/12/05 01:28:41;;;;;;;14.27;10.03;;;1.40;99.90;;;;;;5069507;28;20313;-69
2022/12/05 01:31:10;;;;;;;17.47;11.40;;;1.40;99.90;;;;;;5068588;28;20296;-72
2022/12/05 01:33:36;;;;;;;15.37;10.83;;;1.40;99.90;;;;;;5070115;28;20594;-70
2022/12/05 01:36:04;;;;;;;16.13;11.13;;;1.40;99.90;;;;;;5057862;28;20213;-70
2022/12/05 01:38:32;;;;;;;18.70;11.53;;;1.40;99.90;;;;;;5070154;28;20205;-69
2022/12/05 01:41:02;;;;;;;16.17;11.70;;;1.40;99.90;;;;;;5067430;28;20205;-71
2022/12/05 01:43:29;;;;;;;17.13;12.27;;;1.30;99.90;;;;;;5063849;28;20217;-71
2022/12/05 01:45:56;;;;;;;17.87;10.90;;;1.40;99.90;;;;;;5055956;28;20214;-70
2022/12/05 01:48:25;;;;;;;18.60;12.27;;;1.40;99.90;;;;;;5069508;28;20232;-70
2022/12/05 01:50:52;;;;;;;19.13;11.87;;;1.40;99.90;;;;;;5063925;28;20221;-71
2022/12/05 01:53:20;;;;;;;17.17;12.03;;;1.30;99.90;;;;;;5068450;28;20205;-70
2022/12/05 01:55:49;;;;;;;18.67;12.23;;;1.30;99.90;;;;;;5064221;28;20288;-71
2022/12/05 01:58:17;;;;;;;17.33;12.50;;;1.40;99.90;;;;;;5071182;28;20209;-70
2022/12/05 02:00:45;;;;;;;17.13;11.73;;;1.30;99.90;;;;;;5063304;28;20229;-72
2022/12/05 02:03:16;;;;;;;16.17;11.37;;;1.30;99.90;;;;;;5068517;28;20202;-70
2022/12/05 02:05:44;;;;;;;16.60;11.07;;;1.30;99.90;;;;;;5065183;28;20197;-70
2022/12/05 02:08:12;;;;;;;20.47;12.33;;;1.30;99.90;;;;;;5065787;28;20236;-71
2022/12/05 02:10:41;;;;;;;17.10;12.63;;;1.30;99.90;;;;;;5063643;28;20626;-70
2022/12/05 02:13:21;;;;;;;19.20;12.90;;;1.40;99.90;;;;;;5062580;28;20617;-70
2022/12/05 02:15:54;;;;;;;18.70;12.03;;;1.30;99.90;;;;;;5067577;28;20208;-70
2022/12/05 02:18:29;;;;;;;19.93;12.43;;;1.30;99.90;;;;;;5066484;28;20190;-71
2022/12/05 02:21:17;;;;;;;18.00;11.83;;;1.30;99.90;;;;;;5066307;28;20208;-70
2022/12/05 02:24:24;;;;;;;16.53;11.67;;;1.20;99.90;;;;;;5059241;28;20606;-73
2022/12/05 02:27:12;;;;;;;16.23;10.57;;;1.30;99.90;;;;;;5061425;28;20221;-68
2022/12/05 02:29:59;;;;;;;17.77;12.07;;;1.20;99.90;;;;;;5060698;28;20615;-70
2022/12/05 02:32:37;;;;;;;16.63;11.70;;;1.20;99.90;;;;;;5056639;28;20201;-70
2022/12/05 02:35:16;;;;;;;17.80;12.13;;;1.20;99.90;;;;;;5057326;28;20213;-72
2022/12/05 02:37:51;;;;;;;15.57;10.80;;;1.20;99.90;;;;;;5070194;28;20204;-73
2022/12/05 02:40:24;;;;;;;14.93;10.73;;;1.20;99.90;;;;;;5063861;28;20201;-70
2022/12/05 02:42:56;;;;;;;17.93;11.60;;;1.20;99.90;;;;;;5070064;28;20553;-70
2022/12/05 02:45:27;;;;;;;17.37;11.13;;;1.20;99.90;;;;;;5066035;28;20224;-71
2022/12/05 02:47:55;;;;;;;13.77;10.33;;;1.20;99.90;;;;;;5057321;28;20244;-71
2022/12/05 02:50:25;;;;;;;13.33;10.50;;;1.20;99.90;;;;;;5055056;28;20208;-72
2022/12/05 02:52:56;;;;;;;16.50;10.57;;;1.20;99.90;;;;;;5056390;28;20554;-71
2022/12/05 02:55:24;;;;;;;19.10;12.20;;;1.10;99.90;;;;;;5067540;28;20197;-72
2022/12/05 02:57:56;;;;;;;13.20;10.13;;;1.20;99.90;;;;;;5063805;28;20216;-72
2022/12/05 03:00:24;;;;;;;15.37;10.63;;;1.20;99.90;;;;;;5056110;28;20232;-71
2022/12/05 03:02:55;;;;;;;15.07;10.80;;;1.20;99.90;;;;;;5061939;28;20210;-70
2022/12/05 03:05:32;;;;;;;14.63;9.50;;;1.20;99.90;;;;;;5058461;28;20265;-69
2022/12/05 03:08:02;;;;;;;14.97;10.30;;;1.20;99.90;;;;;;5062602;28;20205;-71
2022/12/05 03:10:32;;;;;;;12.47;9.83;;;1.20;99.90;;;;;;5069480;28;21077;-70
2022/12/05 03:13:05;;;;;;;13.93;9.70;;;1.10;99.90;;;;;;5067914;28;20213;-71
2022/12/05 03:15:38;;;;;;;15.67;10.97;;;1.10;99.90;;;;;;5067769;28;20208;-70
2022/12/05 03:18:11;;;;;;;13.13;9.83;;;1.10;99.90;;;;;;5069338;28;20213;-71
2022/12/05 03:20:43;;;;;;;15.73;10.70;;;1.10;99.90;;;;;;5065890;28;20213;-70
2022/12/05 03:23:14;;;;;;;14.13;10.43;;;1.10;99.90;;;;;;5066052;28;20208;-71
2022/12/05 03:25:50;;;;;;;15.30;10.20;;;1.20;99.90;;;;;;5068836;28;20197;-72
2022/12/05 03:28:22;;;;;;;12.63;9.50;;;1.10;99.90;;;;;;5060625;28;20220;-73
2022/12/05 03:30:53;;;;;;;14.97;9.70;;;1.20;99.90;;;;;;5066408;28;20713;-71
2022/12/05 03:33:23;;;;;;;13.03;9.70;;;1.20;99.90;;;;;;5065423;28;20205;-72
2022/12/05 03:35:59;;;;;;;11.10;8.67;;;1.20;99.90;;;;;;5060502;28;20213;-72
2022/12/05 03:38:31;;;;;;;12.97;8.67;;;1.20;99.90;;;;;;5054908;28;20236;-69
2022/12/05 03:41:08;;;;;;;15.70;10.00;;;1.20;99.90;;;;;;5066373;28;20213;-71
2022/12/05 03:43:40;;;;;;;13.27;9.27;;;1.20;99.90;;;;;;5068030;28;20736;-72
2022/12/05 03:46:16;;;;;;;13.67;9.70;;;1.20;99.90;;;;;;5065298;28;20212;-70
2022/12/05 03:48:51;;;;;;;13.83;9.77;;;1.20;99.90;;;;;;5056280;28;20236;-71
2022/12/05 03:51:22;;;;;;;11.90;9.10;;;1.20;99.90;;;;;;5063757;28;20208;-70
2022/12/05 03:53:53;;;;;;;14.17;10.13;;;1.20;99.90;;;;;;5069657;28;20220;-72
2022/12/05 03:56:24;;;;;;;15.27;10.60;;;1.20;99.90;;;;;;5055590;28;20599;-70
2022/12/05 03:58:56;;;;;;;13.90;10.03;;;1.10;99.90;;;;;;5056600;28;20212;-69
2022/12/05 04:01:27;;;;;;;12.57;9.57;;;1.10;99.90;;;;;;5065314;28;20687;-70
2022/12/05 04:03:59;;;;;;;16.70;10.83;;;1.10;99.90;;;;;;5065349;28;20355;-72
2022/12/05 04:06:30;;;;;;;15.43;9.80;;;1.20;99.90;;;;;;5065167;28;20683;-72
2022/12/05 04:09:01;;;;;;;12.43;9.50;;;1.10;99.90;;;;;;5056418;28;20209;-72
2022/12/05 04:11:31;;;;;;;13.33;10.53;;;1.20;99.90;;;;;;5065960;28;20208;-72
2022/12/05 04:14:05;;;;;;;15.40;10.77;;;1.20;99.90;;;;;;5059822;28;20205;-71
2022/12/05 04:21:36;;;;;;;14.27;10.10;;;1.20;99.90;;;;;;5056841;28;20612;-71
2022/12/05 04:22:14;;;;;;;13.13;10.00;;;1.20;99.90;;;;;;5064414;28;20245;-70
2022/12/05 04:27:29;;;;;;;14.30;10.10;;;1.20;99.90;;;;;;5056765;28;20587;-71
2022/12/05 04:30:04;;;;;;;15.73;10.70;;;1.20;99.90;;;;;;5066224;28;20685;-71
2022/12/05 04:32:39;;;;;;;14.47;10.03;;;1.20;99.90;;;;;;5063952;28;20219;-71
2022/12/05 04:35:13;;;;;;;12.20;8.77;;;1.20;99.90;;;;;;5057777;28;20205;-72
2022/12/05 04:37:44;;;;;;;10.63;8.87;;;1.20;99.90;;;;;;5064379;28;20205;-72
2022/12/05 04:40:17;;;;;;;14.67;9.97;;;1.20;99.90;;;;;;5052279;28;20205;-71
2022/12/05 04:42:46;;;;;;;13.23;9.50;;;1.20;99.90;;;;;;5065710;28;20212;-71
2022/12/05 04:45:17;;;;;;;13.47;10.00;;;1.10;99.90;;;;;;5061411;28;20566;-70
2022/12/05 04:47:50;;;;;;;13.03;10.10;;;1.10;99.90;;;;;;5065418;28;20269;-71
2022/12/05 04:50:19;;;;;;;12.97;10.33;;;1.10;99.90;;;;;;5061077;28;20240;-73
2022/12/05 04:52:50;;;;;;;14.23;9.30;;;1.10;99.90;;;;;;5063540;28;20217;-72
2022/12/05 04:55:24;;;;;;;12.90;10.10;;;1.10;99.90;;;;;;5065714;28;20205;-73
2022/12/05 04:57:59;;;;;;;13.07;9.73;;;1.10;99.90;;;;;;5066300;28;20220;-71
2022/12/05 05:00:28;;;;;;;13.87;9.43;;;1.10;99.90;;;;;;5056215;28;20220;-71
2022/12/05 05:03:04;;;;;;;14.00;9.03;;;1.10;99.90;;;;;;5062872;28;20661;-71
2022/12/05 05:05:32;;;;;;;11.37;8.50;;;1.10;99.90;;;;;;5065344;28;20197;-73
2022/12/05 05:07:59;;;;;;;13.23;9.70;;;1.10;99.90;;;;;;5066722;28;20682;-71
2022/12/05 05:10:32;;;;;;;13.53;9.40;;;1.10;99.90;;;;;;5067247;28;20217;-72
2022/12/05 05:12:59;;;;;;;12.03;8.80;;;1.10;99.90;;;;;;5066186;28;20212;-71
2022/12/05 05:15:26;;;;;;;11.63;8.63;;;1.20;99.90;;;;;;5064398;28;20566;-73
2022/12/05 05:17:53;;;;;;;12.63;8.80;;;1.10;99.90;;;;;;5067128;28;20646;-73
2022/12/05 05:20:24;;;;;;;14.40;9.40;;;1.20;99.90;;;;;;5060967;28;20213;-73
2022/12/05 05:22:52;;;;;;;11.83;8.50;;;1.20;99.90;;;;;;5068073;28;20197;-73
2022/12/05 05:25:19;;;;;;;10.50;8.10;;;1.20;99.90;;;;;;5067161;28;20654;-71
2022/12/05 05:27:50;;;;;;;12.10;8.03;;;1.20;99.90;;;;;;5068144;28;20212;-72
2022/12/05 05:30:17;;;;;;;13.97;9.17;;;1.10;99.90;;;;;;5063963;28;20735;-72
2022/12/05 05:32:44;;;;;;;10.27;7.90;;;1.10;99.90;;;;;;5072471;28;20216;-73
2022/12/05 05:35:11;;;;;;;12.07;8.90;;;1.10;99.90;;;;;;5063778;28;20514;-71
2022/12/05 05:37:40;;;;;;;11.17;8.47;;;1.10;99.90;;;;;;5072101;28;20202;-73
2022/12/05 05:40:08;;;;;;;12.43;8.87;;;1.10;99.90;;;;;;5059824;28;20217;-73
2022/12/05 05:42:35;;;;;;;10.00;7.97;;;1.20;99.90;;;;;;5069904;28;20550;-72
2022/12/05 05:45:02;;;;;;;12.07;8.57;;;1.20;99.90;;;;;;5061342;28;20201;-72
2022/12/05 05:47:29;;;;;;;12.43;8.73;;;1.10;99.90;;;;;;5071561;28;20209;-72
2022/12/05 05:49:55;;;;;;;11.00;8.77;;;1.10;99.90;;;;;;5062424;28;20596;-72
2022/12/05 05:52:22;;;;;;;15.70;8.67;;;1.10;99.90;;;;;;5067242;28;20713;-72
2022/12/05 05:54:50;;;;;;;10.33;7.73;;;1.10;99.90;;;;;;5068613;28;20216;-72
2022/12/05 05:57:17;;;;;;;12.93;8.67;;;1.10;99.90;;;;;;5061177;28;20201;-73
2022/12/05 05:59:44;;;;;;;13.93;8.47;;;1.20;99.90;;;;;;5062357;28;20240;-72
2022/12/05 06:02:10;;;;;;;11.63;8.27;;;1.20;99.90;;;;;;5065293;28;20212;-72
2022/12/05 06:04:37;;;;;;;11.90;8.57;;;1.20;99.90;;;;;;5057265;28;20221;-73
2022/12/05 06:07:04;;;;;;;12.10;8.57;;;1.20;99.90;;;;;;5058949;28;20216;-72
2022/12/05 06:09:31;;;;;;;12.67;8.63;;;1.20;99.90;;;;;;5064722;28;20228;-70
2022/12/05 06:11:59;;;;;;;11.63;8.50;;;1.20;99.90;;;;;;5069707;28;20209;-72
2022/12/05 06:14:26;;;;;;;12.07;8.57;;;1.20;99.90;;;;;;5064752;28;20210;-71
2022/12/05 06:16:52;;;;;;;13.23;9.07;;;1.20;99.90;;;;;;5064654;28;20212;-74
2022/12/05 06:19:19;;;;;;;11.67;8.40;;;1.20;99.90;;;;;;5060764;28;20217;-74
2022/12/05 06:21:49;;;;;;;13.50;9.13;;;1.30;99.90;;;;;;5065724;28;20213;-68
2022/12/05 06:24:15;;;;;;;12.13;8.43;;;1.10;99.90;;;;;;5064269;28;20209;-68
2022/12/05 06:26:42;;;;;;;11.03;7.97;;;1.10;99.90;;;;;;5061300;28;20226;-69
2022/12/05 06:29:11;;;;;;;11.43;8.63;;;1.10;99.90;;;;;;5062009;28;20316;-69
2022/12/05 06:31:37;;;;;;;14.47;8.87;;;1.10;99.90;;;;;;5061360;28;20206;-70
2022/12/05 06:34:04;;;;;;;13.13;8.90;;;1.10;99.90;;;;;;5068313;28;21547;-72
2022/12/05 06:36:31;;;;;;;12.93;8.90;;;1.10;99.90;;;;;;5066928;28;20296;-71
2022/12/05 06:38:59;;;;;;;14.05;10.20;;;1.20;99.90;;;;;;5070625;28;20450;-72
2022/12/05 06:41:27;;;;;;;14.27;8.83;;;1.20;99.90;;;;;;5077747;28;20201;-70
2022/12/05 06:43:54;;;;;;;13.07;9.47;;;1.20;99.90;;;;;;5070148;28;20485;-70
2022/12/05 06:46:24;;;;;;;14.88;11.93;;;1.20;99.90;;;;;;5062379;28;20447;-76
2022/12/05 06:48:52;;;;;;;16.17;12.93;;;1.20;99.90;;;;;;5066232;28;20531;-63
2022/12/05 06:51:19;;;;;;;16.08;12.30;;;1.20;99.90;;;;;;5069047;28;21015;-71
2022/12/05 06:53:46;;;;;;;14.63;10.50;;;1.20;99.90;;;;;;5069582;28;20212;-73
2022/12/05 06:56:17;;;;;;;14.00;11.70;;;1.20;99.90;;;;;;5067052;28;20482;-69
2022/12/05 06:58:45;;;;;;;16.33;12.43;;;1.30;99.90;;;;;;5060373;28;20456;-66
2022/12/05 07:03:59;;;;;;;16.80;10.03;;;1.30;99.90;;;;;;5057232;28;20197;-70
2022/12/05 07:06:26;;;;;;;14.60;9.33;;;1.30;99.90;;;;;;5065343;28;20208;-71
2022/12/05 07:08:53;;;;;;;13.47;9.10;;;1.30;99.90;;;;;;5057738;28;20202;-71
2022/12/05 07:11:20;;;;;;;15.33;9.40;;;1.30;99.90;;;;;;5055795;28;20225;-71
2022/12/05 07:13:47;;;;;;;13.37;9.93;;;1.30;99.90;;;;;;5058459;28;20232;-74
2022/12/05 07:16:14;;;;;;;15.07;9.23;;;1.30;99.90;;;;;;5061081;28;20205;-72
2022/12/05 07:18:41;;;;;;;15.60;12.80;;;1.30;99.90;;;;;;5062751;28;20462;-68
2022/12/05 07:21:12;;;;;;;17.92;14.52;;;1.40;99.90;;;;;;5063865;28;20449;-68
2022/12/05 07:23:39;;;;;;;13.87;10.43;;;1.30;99.90;;;;;;5065335;28;20670;-69
2022/12/05 07:26:07;;;;;;;13.17;9.73;;;1.30;99.90;;;;;;5065749;28;20350;-67
2022/12/05 07:28:35;;;;;;;15.37;9.47;;;1.40;99.90;;;;;;5061835;28;20201;-71
2022/12/05 07:31:03;;;;;;;13.53;9.53;;;1.40;99.90;;;;;;5058723;28;20229;-68
2022/12/05 07:33:30;;;;;;;12.40;8.53;;;1.40;99.90;;;;;;5052060;28;20216;-74
2022/12/05 07:36:00;;;;;;;14.90;10.03;;;1.40;99.90;;;;;;5066593;28;20255;-69
2022/12/05 07:38:29;;;;;;;15.63;9.87;;;1.40;99.90;;;;;;5062936;28;20579;-70
2022/12/05 07:40:56;;;;;;;16.90;9.37;;;1.40;99.90;;;;;;5056008;28;20201;-71
2022/12/05 07:43:23;;;;;;;16.90;10.50;;;1.40;99.90;;;;;;5067875;28;20220;-71
2022/12/05 07:45:50;;;;;;;13.03;9.50;;;1.40;99.90;;;;;;5054292;28;20600;-69
2022/12/05 07:48:17;;;;;;;15.87;9.73;;;1.40;99.90;;;;;;5065769;28;20235;-68
2022/12/05 07:50:44;;;;;;;14.87;9.63;;;1.40;99.90;;;;;;5063642;28;20226;-69
2022/12/05 07:53:11;;;;;;;13.87;9.70;;;1.40;99.90;;;;;;5054010;28;20233;-72
2022/12/05 07:55:39;;;;;;;15.43;9.40;;;1.40;99.90;;;;;;5055257;28;20563;-68
2022/12/05 07:58:06;;;;;;;14.10;10.07;;;1.40;99.90;;;;;;5057946;28;20205;-68
2022/12/05 08:00:33;;;;;;;14.50;9.93;;;1.50;99.90;;;;;;5063243;28;20222;-71
2022/12/05 08:03:02;;;;;;;17.20;9.73;;;1.50;99.90;;;;;;5051694;28;20214;-77
2022/12/05 08:05:30;;;;;;;13.27;8.53;;;1.50;99.90;;;;;;5055000;28;20209;-76
2022/12/05 08:07:56;;;;;;;13.37;9.40;;;1.50;99.90;;;;;;5059375;28;20202;-72
2022/12/05 08:10:23;;;;;;;14.97;9.27;;;1.50;99.90;;;;;;5052108;28;20598;-70
2022/12/05 08:12:51;;;;;;;16.47;9.07;;;1.50;99.90;;;;;;5057583;28;20724;-72
2022/12/05 08:15:18;;;;;;;15.83;9.33;;;1.50;99.90;;;;;;5058786;28;20327;-75
2022/12/05 08:17:45;;;;;;;15.47;9.60;;;1.50;99.90;;;;;;5062811;28;20209;-71
2022/12/05 08:20:13;;;;;;;14.47;9.47;;;1.40;99.90;;;;;;5058479;28;20201;-73
2022/12/05 08:22:39;;;;;;;14.63;9.33;;;1.50;99.90;;;;;;5068515;28;20596;-73
2022/12/05 08:25:07;;;;;;;15.40;9.00;;;1.60;99.90;;;;;;5068742;28;20209;-72
2022/12/05 08:27:34;;;;;;;13.90;9.47;;;1.60;99.90;;;;;;5054246;28;20205;-74
2022/12/05 08:30:03;;;;;;;14.37;9.83;;;1.60;99.90;;;;;;5069707;28;20249;-74
2022/12/05 08:32:30;;;;;;;14.73;9.73;;;1.60;99.90;;;;;;5062817;28;20201;-71
2022/12/05 08:34:56;;;;;;;14.53;9.60;;;1.60;99.90;;;;;;5070671;28;20208;-70
2022/12/05 08:37:23;;;;;;;15.10;9.90;;;1.60;99.90;;;;;;5068245;28;20206;-70
2022/12/05 08:39:50;;;;;;;17.93;10.33;;;1.60;99.90;;;;;;5061428;28;20206;-73
2022/12/05 08:42:16;;;;;;;13.70;8.97;;;1.60;99.90;;;;;;5051665;28;20216;-72
2022/12/05 08:44:43;;;;;;;13.47;9.17;;;1.60;99.90;;;;;;5054964;28;20213;-73
2022/12/05 08:47:12;;;;;;;12.60;8.80;;;1.60;99.90;;;;;;5064148;28;20563;-70
2022/12/05 08:49:38;;;;;;;14.50;9.67;;;1.60;99.90;;;;;;5060499;28;20237;-73
2022/12/05 08:52:05;;;;;;;14.67;10.00;;;1.60;99.90;;;;;;5068808;28;20201;-70
2022/12/05 08:54:32;;;;;;;14.87;10.60;;;1.60;99.90;;;;;;5063204;28;20210;-73
2022/12/05 08:56:59;;;;;;;15.17;9.63;;;1.60;99.90;;;;;;5060306;28;20213;-72
2022/12/05 08:59:26;;;;;;;17.43;10.00;;;1.70;99.90;;;;;;5068417;28;20232;-71
2022/12/05 09:01:52;;;;;;;18.30;10.33;;;1.60;99.90;;;;;;5055039;28;20198;-71
2022/12/05 09:04:21;;;;;;;14.20;9.40;;;1.60;99.90;;;;;;5068621;28;20205;-74
2022/12/05 09:06:47;;;;;;;17.07;10.50;;;1.60;99.90;;;;;;5062550;28;20213;-72
2022/12/05 09:09:16;;;;;;;14.07;10.17;;;1.60;99.90;;;;;;5072432;28;20205;-73
2022/12/05 09:11:45;;;;;;;15.63;10.23;;;1.60;99.90;;;;;;5068450;28;20264;-75
2022/12/05 09:14:12;;;;;;;16.40;10.63;;;1.60;99.90;;;;;;5066903;28;20673;-76
2022/12/05 09:16:40;;;;;;;16.67;10.47;;;1.60;99.90;;;;;;5065006;28;20198;-73
2022/12/05 09:19:12;;;;;;;18.23;11.00;;;1.60;99.90;;;;;;5068908;28;21858;-71
2022/12/05 09:21:40;;;;;;;18.00;11.50;;;1.70;99.90;;;;;;5062013;28;20194;-78
2022/12/05 09:24:07;;;;;;;14.13;10.13;;;1.60;99.90;;;;;;5068944;28;20209;-73
2022/12/05 09:26:34;;;;;;;20.17;11.20;;;1.70;99.90;;;;;;5065114;28;20205;-74
2022/12/05 09:29:02;;;;;;;17.53;11.23;;;1.70;99.90;;;;;;5068789;28;20202;-73
2022/12/05 09:31:29;;;;;;;16.07;10.50;;;1.70;99.90;;;;;;5067393;28;20275;-74
2022/12/05 09:33:56;;;;;;;17.30;11.50;;;1.70;99.90;;;;;;5063394;28;20208;-74
2022/12/05 09:36:25;;;;;;;16.53;10.63;;;1.70;99.90;;;;;;5068351;28;20215;-74
2022/12/05 09:38:54;;;;;;;19.17;11.00;;;1.70;99.90;;;;;;5060801;28;20220;-76
2022/12/05 09:44:37;;;;;;;16.43;10.60;;;1.80;99.90;;;;;;5068424;28;20746;-75
2022/12/05 09:47:14;;;;;;;16.20;10.43;;;1.70;99.90;;;;;;5065719;28;20650;-76
2022/12/05 09:49:47;;;;;;;16.03;10.70;;;1.80;99.90;;;;;;5071708;28;20241;-76
2022/12/05 09:52:22;;;;;;;18.23;11.33;;;1.80;99.90;;;;;;5074229;28;20669;-75
2022/12/05 09:54:52;;;;;;;18.07;11.20;;;1.80;99.90;;;;;;5076315;28;20224;-74
2022/12/05 09:57:33;;;;;;;17.20;10.17;;;1.90;99.90;;;;;;5062173;28;20639;-73
2022/12/05 10:00:02;;;;;;;21.00;11.70;;;1.90;99.90;;;;;;5066053;28;20734;-70
2022/12/05 10:02:39;;;;;;;17.07;11.30;;;1.90;99.90;;;;;;5068318;28;20650;-73
2022/12/05 10:05:09;;;;;;;18.37;10.67;;;1.90;99.90;;;;;;5064982;28;20229;-74
2022/12/05 10:07:41;;;;;;;18.53;10.20;;;1.90;99.90;;;;;;5062326;28;20205;-72
2022/12/05 10:10:27;;;;;;;19.23;10.67;;;1.90;99.90;;;;;;5055804;28;20231;-72
2022/12/05 10:13:06;;;;;;;16.07;10.57;;;1.90;99.90;;;;;;5059387;28;20212;-72
2022/12/05 10:15:38;;;;;;;17.00;10.80;;;1.90;99.90;;;;;;5061627;28;20201;-74
2022/12/05 10:18:14;;;;;;;17.27;11.47;;;1.90;99.90;;;;;;5065678;28;20193;-72
2022/12/05 10:20:46;;;;;;;17.87;11.17;;;1.90;99.90;;;;;;5053034;28;20198;-74
2022/12/05 10:23:20;;;;;;;17.17;10.80;;;1.90;99.90;;;;;;5066152;28;20201;-72
2022/12/05 10:25:52;;;;;;;20.10;11.40;;;1.90;99.90;;;;;;5062393;28;20209;-71
2022/12/05 10:28:30;;;;;;;15.80;10.67;;;1.90;99.90;;;;;;5061796;28;20276;-73
2022/12/05 10:31:02;;;;;;;17.27;11.00;;;1.90;99.90;;;;;;5062992;28;20323;-75
2022/12/05 10:33:37;;;;;;;18.70;11.00;;;1.90;99.90;;;;;;5064953;28;20198;-73
2022/12/05 10:36:10;;;;;;;16.30;10.53;;;1.90;99.90;;;;;;5054199;28;20216;-73
2022/12/05 10:38:37;;;;;;;17.27;11.07;;;1.90;99.90;;;;;;5057057;28;20624;-72
2022/12/05 10:41:07;;;;;;;18.10;11.27;;;1.90;99.90;;;;;;5067430;28;20665;-72
2022/12/05 10:43:37;;;;;;;19.63;12.40;;;2.00;99.90;;;;;;5064674;28;20206;-72
2022/12/05 10:46:04;;;;;;;16.67;10.80;;;2.00;99.90;;;;;;5064775;28;20639;-74
2022/12/05 10:48:36;;;;;;;19.80;11.53;;;2.10;99.90;;;;;;5060305;28;20247;-74
2022/12/05 10:51:03;;;;;;;18.43;11.47;;;2.20;99.90;;;;;;5066038;28;20224;-73
2022/12/05 10:53:39;;;;;;;20.23;12.77;;;2.10;99.90;;;;;;5064953;28;20206;-74
2022/12/05 10:56:40;;;;;;;20.60;12.60;;;2.10;99.90;;;;;;5067553;28;20200;-73
2022/12/05 10:59:07;;;;;;;19.20;11.33;;;2.10;99.90;;;;;;5068473;28;20205;-73
2022/12/05 11:01:36;;;;;;;19.90;12.37;;;2.10;99.90;;;;;;5066246;28;20201;-72
2022/12/05 11:04:10;;;;;;;17.83;11.90;;;2.10;99.90;;;;;;5068534;28;20210;-73
2022/12/05 11:06:36;;;;;;;19.70;12.20;;;2.10;99.90;;;;;;5064386;28;20496;-72
2022/12/05 11:09:13;;;;;;;20.17;12.23;;;2.20;99.90;;;;;;5066255;28;20295;-73
2022/12/05 11:11:41;;;;;;;18.17;11.40;;;2.10;99.90;;;;;;5065311;28;20209;-71
2022/12/05 11:14:22;;;;;;;22.97;13.17;;;2.10;99.90;;;;;;5070685;28;20205;-73
2022/12/05 11:16:53;;;;;;;18.53;12.07;;;2.10;99.90;;;;;;5069822;28;20205;-72
2022/12/05 11:19:26;;;;;;;19.40;11.93;;;2.10;99.90;;;;;;5064022;28;20927;-73
2022/12/05 11:21:53;;;;;;;18.30;12.03;;;2.10;99.90;;;;;;5069249;28;20193;-73
2022/12/05 11:24:23;;;;;;;20.20;12.47;;;2.10;99.90;;;;;;5063514;28;20217;-71
2022/12/05 11:26:51;;;;;;;24.40;12.60;;;2.10;99.90;;;;;;5062710;28;20254;-72
2022/12/05 11:29:32;;;;;;;21.37;12.33;;;2.10;99.90;;;;;;5069775;28;20205;-72
2022/12/05 11:31:59;;;;;;;21.37;12.90;;;2.10;99.90;;;;;;5057849;28;20223;-75
2022/12/05 11:34:31;;;;;;;21.97;12.40;;;2.10;99.90;;;;;;5067624;28;20213;-72
2022/12/05 11:37:03;;;;;;;20.70;12.13;;;2.10;99.90;;;;;;5061711;28;20205;-71
2022/12/05 11:39:29;;;;;;;21.40;12.87;;;2.00;99.90;;;;;;5052287;28;20230;-72
2022/12/05 11:42:13;;;;;;;22.37;11.57;;;2.00;99.90;;;;;;5065541;28;20202;-73
2022/12/05 11:45:03;;;;;;;22.63;12.57;;;2.00;99.90;;;;;;5064765;28;20205;-73
2022/12/05 11:47:48;;;;;;;20.70;11.43;;;2.00;99.90;;;;;;5059498;28;20197;-71
2022/12/05 11:50:24;;;;;;;21.97;13.00;;;2.10;99.90;;;;;;5063621;28;20213;-73
2022/12/05 11:53:04;;;;;;;22.77;13.00;;;2.10;99.90;;;;;;5062179;28;20201;-71
2022/12/05 11:55:39;;;;;;;21.37;13.00;;;2.10;99.90;;;;;;5061445;28;20198;-72
2022/12/05 11:58:42;;;;;;;22.90;12.80;;;2.00;99.90;;;;;;5066293;28;20198;-71
2022/12/05 12:01:20;;;;;;;18.93;11.60;;;2.00;99.90;;;;;;5006097;28;20279;-71
2022/12/05 12:04:25;;;;;;;22.20;12.83;;;2.10;99.90;;;;;;5053601;28;20201;-71
2022/12/05 12:07:05;;;;;;;21.20;12.20;;;2.10;99.90;;;;;;5067835;28;20212;-67
2022/12/05 12:09:43;;;;;;;20.40;12.57;;;2.00;99.90;;;;;;5066825;28;20662;-70
2022/12/05 12:12:19;;;;;;;21.23;12.73;;;2.00;99.90;;;;;;5062251;28;20283;-70
2022/12/05 12:14:55;;;;;;;22.20;12.30;;;2.00;99.90;;;;;;5065605;28;20209;-70
2022/12/05 12:17:30;;;;;;;21.30;11.77;;;2.00;99.90;;;;;;5064878;28;20201;-70
2022/12/05 12:20:17;;;;;;;18.27;11.63;;;2.00;99.90;;;;;;5061503;28;20200;-67
2022/12/05 12:23:02;;;;;;;20.73;12.33;;;2.00;99.90;;;;;;5063900;28;20198;-69
2022/12/05 12:25:42;;;;;;;23.13;13.43;;;2.00;99.90;;;;;;5059649;28;20213;-69
2022/12/05 12:28:25;;;;;;;25.37;11.97;;;2.00;99.90;;;;;;5066515;28;20216;-70
2022/12/05 12:31:06;;;;;;;24.90;12.67;;;2.10;99.90;;;;;;5065572;28;20216;-75
2022/12/05 12:33:36;;;;;;;23.37;13.93;;;2.10;99.90;;;;;;5068905;28;20216;-77
2022/12/05 12:36:17;;;;;;;23.70;13.00;;;2.10;99.90;;;;;;5064283;28;20313;-74
2022/12/05 12:39:12;;;;;;;25.73;12.70;;;2.10;99.90;;;;;;5061787;28;20201;-68
2022/12/05 12:42:13;;;;;;;21.70;12.63;;;2.10;99.90;;;;;;5067083;28;20212;-75
2022/12/05 12:45:09;;;;;;;20.87;12.30;;;2.10;99.90;;;;;;5066532;28;20201;-70
2022/12/05 12:47:53;;;;;;;25.83;11.80;;;2.10;99.90;;;;;;5075218;28;20212;-72
2022/12/05 12:50:22;;;;;;;21.70;12.77;;;2.10;99.90;;;;;;5070574;28;20205;-68
2022/12/05 12:53:09;;;;;;;21.80;12.43;;;2.20;99.90;;;;;;5072324;28;20577;-70
2022/12/05 12:55:43;;;;;;;21.33;12.43;;;2.20;99.90;;;;;;5062713;28;20251;-71
2022/12/05 12:58:20;;;;;;;22.37;13.20;;;2.20;99.90;;;;;;5071451;28;20201;-73
2022/12/05 13:00:57;;;;;;;25.80;13.43;;;2.20;99.90;;;;;;5058812;28;20243;-71
2022/12/05 13:03:30;;;;;;;22.37;12.97;;;2.20;99.90;;;;;;5064151;28;20205;-73
2022/12/05 13:06:00;;;;;;;21.17;12.30;;;2.20;99.90;;;;;;5063563;28;20212;-73
2022/12/05 13:08:33;;;;;;;26.27;13.33;;;2.20;99.90;;;;;;5073618;28;20272;-72
2022/12/05 13:11:02;;;;;;;24.13;12.77;;;2.20;99.90;;;;;;5077066;28;20209;-70
2022/12/05 13:13:35;;;;;;;22.67;12.63;;;2.10;99.90;;;;;;5064765;28;20206;-80